sensor_id;sensor_type;location;lat;lon;timestamp;temperature;humidity
20102;DHT22;10210;52.284;9.892;2023-08-17T00:02:21;24.50;99.90
20102;DHT22;10210;52.284;9.892;2023-08-17T00:04:46;24.50;99.90
20102;DHT22;10210;52.284;9.892;2023-08-17T00:07:12;24.50;99.90
20102;DHT22;10210;52.284;9.892;2023-08-17T00:09:39;24.50;99.90
20102;DHT22;10210;52.284;9.892;2023-08-17T00:12:05;24.50;99.90
20102;DHT22;10210;52.284;9.892;2023-08-17T00:14:30;24.50;99.90
20102;DHT22;10210;52.284;9.892;2023-08-17T00:16:56;24.50;99.90
20102;DHT22;10210;52.284;9.892;2023-08-17T00:19:22;24.50;99.90
20102;DHT22;10210;52.284;9.892;2023-08-17T00:21:47;24.50;99.90
20102;DHT22;10210;52.284;9.892;2023-08-17T00:24:13;24.40;99.90
20102;DHT22;10210;52.284;9.892;2023-08-17T00:26:39;24.40;99.90
20102;DHT22;10210;52.284;9.892;2023-08-17T00:29:04;24.40;99.90
20102;DHT22;10210;52.284;9.892;2023-08-17T00:31:30;24.40;99.90
20102;DHT22;10210;52.284;9.892;2023-08-17T00:33:56;24.30;99.90
20102;DHT22;10210;52.284;9.892;2023-08-17T00:36:21;24.30;99.90
20102;DHT22;10210;52.284;9.892;2023-08-17T00:38:47;24.30;99.90
20102;DHT22;10210;52.284;9.892;2023-08-17T00:41:13;24.20;99.90
20102;DHT22;10210;52.284;9.892;2023-08-17T00:43:38;24.10;99.90
20102;DHT22;10210;52.284;9.892;2023-08-17T00:46:04;24.10;99.90
20102;DHT22;10210;52.284;9.892;2023-08-17T00:48:30;24.00;99.90
20102;DHT22;10210;52.284;9.892;2023-08-17T00:50:57;23.90;99.90
20102;DHT22;10210;52.284;9.892;2023-08-17T00:53:27;23.90;99.90
20102;DHT22;10210;52.284;9.892;2023-08-17T00:55:56;23.80;99.90
20102;DHT22;10210;52.284;9.892;2023-08-17T00:58:22;23.70;99.90
20102;DHT22;10210;52.284;9.892;2023-08-17T01:00:47;23.70;99.90
20102;DHT22;10210;52.284;9.892;2023-08-17T01:03:15;23.60;99.90
20102;DHT22;10210;52.284;9.892;2023-08-17T01:05:42;23.60;99.90
20102;DHT22;10210;52.284;9.892;2023-08-17T01:08:07;23.60;99.90
20102;DHT22;10210;52.284;9.892;2023-08-17T01:14:03;23.50;99.90
20102;DHT22;10210;52.284;9.892;2023-08-17T01:16:40;23.40;99.90
20102;DHT22;10210;52.284;9.892;2023-08-17T01:19:29;23.40;99.90
20102;DHT22;10210;52.284;9.892;2023-08-17T01:22:01;23.30;99.90
20102;DHT22;10210;52.284;9.892;2023-08-17T01:24:30;23.30;99.90
20102;DHT22;10210;52.284;9.892;2023-08-17T01:26:55;23.30;99.90
20102;DHT22;10210;52.284;9.892;2023-08-17T01:29:21;23.20;99.90
20102;DHT22;10210;52.284;9.892;2023-08-17T01:34:46;23.10;99.90
20102;DHT22;10210;52.284;9.892;2023-08-17T01:37:18;23.00;99.90
20102;DHT22;10210;52.284;9.892;2023-08-17T01:39:50;22.90;99.90
20102;DHT22;10210;52.284;9.892;2023-08-17T01:42:19;22.80;99.90
20102;DHT22;10210;52.284;9.892;2023-08-17T01:44:47;22.70;99.90
20102;DHT22;10210;52.284;9.892;2023-08-17T01:47:13;22.70;99.90
20102;DHT22;10210;52.284;9.892;2023-08-17T01:49:39;22.60;99.90
20102;DHT22;10210;52.284;9.892;2023-08-17T01:52:05;22.50;99.90
20102;DHT22;10210;52.284;9.892;2023-08-17T01:54:31;22.50;99.90
20102;DHT22;10210;52.284;9.892;2023-08-17T01:56:56;22.40;99.90
20102;DHT22;10210;52.284;9.892;2023-08-17T01:59:22;22.40;99.90
20102;DHT22;10210;52.284;9.892;2023-08-17T02:01:48;22.30;99.90
20102;DHT22;10210;52.284;9.892;2023-08-17T02:04:14;22.30;99.90
20102;DHT22;10210;52.284;9.892;2023-08-17T02:06:40;22.20;99.90
20102;DHT22;10210;52.284;9.892;2023-08-17T02:09:06;22.10;99.90
20102;DHT22;10210;52.284;9.892;2023-08-17T02:11:31;22.10;99.90
20102;DHT22;10210;52.284;9.892;2023-08-17T02:13:57;22.10;99.90
20102;DHT22;10210;52.284;9.892;2023-08-17T02:16:25;22.10;99.90
20102;DHT22;10210;52.284;9.892;2023-08-17T02:18:51;22.00;99.90
20102;DHT22;10210;52.284;9.892;2023-08-17T02:21:16;22.00;99.90
20102;DHT22;10210;52.284;9.892;2023-08-17T02:23:42;22.00;99.90
20102;DHT22;10210;52.284;9.892;2023-08-17T02:26:08;22.00;99.90
20102;DHT22;10210;52.284;9.892;2023-08-17T02:28:33;22.00;99.90
20102;DHT22;10210;52.284;9.892;2023-08-17T02:30:59;22.00;99.90
20102;DHT22;10210;52.284;9.892;2023-08-17T02:33:25;21.90;99.90
20102;DHT22;10210;52.284;9.892;2023-08-17T02:35:51;21.90;99.90
20102;DHT22;10210;52.284;9.892;2023-08-17T02:38:17;21.90;99.90
20102;DHT22;10210;52.284;9.892;2023-08-17T02:40:43;21.90;99.90
20102;DHT22;10210;52.284;9.892;2023-08-17T02:43:09;21.80;99.90
20102;DHT22;10210;52.284;9.892;2023-08-17T02:45:35;21.90;99.90
20102;DHT22;10210;52.284;9.892;2023-08-17T02:48:01;21.80;99.90
20102;DHT22;10210;52.284;9.892;2023-08-17T02:50:27;21.80;99.90
20102;DHT22;10210;52.284;9.892;2023-08-17T02:52:52;21.80;99.90
20102;DHT22;10210;52.284;9.892;2023-08-17T02:55:18;21.80;99.90
20102;DHT22;10210;52.284;9.892;2023-08-17T02:57:44;21.80;99.90
20102;DHT22;10210;52.284;9.892;2023-08-17T03:00:10;21.70;99.90
20102;DHT22;10210;52.284;9.892;2023-08-17T03:02:36;21.70;99.90
20102;DHT22;10210;52.284;9.892;2023-08-17T03:05:02;21.70;99.90
20102;DHT22;10210;52.284;9.892;2023-08-17T03:07:28;21.70;99.90
20102;DHT22;10210;52.284;9.892;2023-08-17T03:09:54;21.70;99.90
20102;DHT22;10210;52.284;9.892;2023-08-17T03:12:19;21.70;99.90
20102;DHT22;10210;52.284;9.892;2023-08-17T03:14:46;21.60;99.90
20102;DHT22;10210;52.284;9.892;2023-08-17T03:17:11;21.60;99.90
20102;DHT22;10210;52.284;9.892;2023-08-17T03:19:37;21.60;99.90
20102;DHT22;10210;52.284;9.892;2023-08-17T03:22:03;21.60;99.90
20102;DHT22;10210;52.284;9.892;2023-08-17T03:24:28;21.60;99.90
20102;DHT22;10210;52.284;9.892;2023-08-17T03:26:54;21.50;99.90
20102;DHT22;10210;52.284;9.892;2023-08-17T03:29:20;21.50;99.90
20102;DHT22;10210;52.284;9.892;2023-08-17T03:31:45;21.50;99.90
20102;DHT22;10210;52.284;9.892;2023-08-17T03:34:11;21.50;99.90
20102;DHT22;10210;52.284;9.892;2023-08-17T03:36:37;21.50;99.90
20102;DHT22;10210;52.284;9.892;2023-08-17T03:39:03;21.50;99.90
20102;DHT22;10210;52.284;9.892;2023-08-17T03:41:29;21.50;99.90
20102;DHT22;10210;52.284;9.892;2023-08-17T03:43:55;21.50;99.90
20102;DHT22;10210;52.284;9.892;2023-08-17T03:46:21;21.50;99.90
20102;DHT22;10210;52.284;9.892;2023-08-17T03:48:46;21.40;99.90
20102;DHT22;10210;52.284;9.892;2023-08-17T03:51:12;21.40;99.90
20102;DHT22;10210;52.284;9.892;2023-08-17T03:53:38;21.40;99.90
20102;DHT22;10210;52.284;9.892;2023-08-17T03:56:04;21.40;99.90
20102;DHT22;10210;52.284;9.892;2023-08-17T03:58:29;21.40;99.90
20102;DHT22;10210;52.284;9.892;2023-08-17T04:00:59;21.40;99.90
20102;DHT22;10210;52.284;9.892;2023-08-17T04:03:25;21.40;99.90
20102;DHT22;10210;52.284;9.892;2023-08-17T04:05:51;21.40;99.90
20102;DHT22;10210;52.284;9.892;2023-08-17T04:08:17;21.40;99.90
20102;DHT22;10210;52.284;9.892;2023-08-17T04:10:42;21.40;99.90
20102;DHT22;10210;52.284;9.892;2023-08-17T04:13:08;21.40;99.90
20102;DHT22;10210;52.284;9.892;2023-08-17T04:15:34;21.40;99.90
20102;DHT22;10210;52.284;9.892;2023-08-17T04:17:59;21.40;99.90
20102;DHT22;10210;52.284;9.892;2023-08-17T04:20:25;21.40;99.90
20102;DHT22;10210;52.284;9.892;2023-08-17T04:22:51;21.40;99.90
20102;DHT22;10210;52.284;9.892;2023-08-17T04:25:17;21.40;99.90
20102;DHT22;10210;52.284;9.892;2023-08-17T04:27:42;21.50;99.90
20102;DHT22;10210;52.284;9.892;2023-08-17T04:30:09;21.50;99.90
20102;DHT22;10210;52.284;9.892;2023-08-17T04:32:35;21.50;99.90
20102;DHT22;10210;52.284;9.892;2023-08-17T04:35:01;21.50;99.90
20102;DHT22;10210;52.284;9.892;2023-08-17T04:37:26;21.50;99.90
20102;DHT22;10210;52.284;9.892;2023-08-17T04:39:52;21.50;99.90
20102;DHT22;10210;52.284;9.892;2023-08-17T04:42:18;21.50;99.90
20102;DHT22;10210;52.284;9.892;2023-08-17T04:44:45;21.60;99.90
20102;DHT22;10210;52.284;9.892;2023-08-17T04:47:11;21.60;99.90
20102;DHT22;10210;52.284;9.892;2023-08-17T04:49:37;21.60;99.90
20102;DHT22;10210;52.284;9.892;2023-08-17T04:52:03;21.60;99.90
20102;DHT22;10210;52.284;9.892;2023-08-17T04:54:29;21.60;99.90
20102;DHT22;10210;52.284;9.892;2023-08-17T04:56:55;21.60;99.90
20102;DHT22;10210;52.284;9.892;2023-08-17T04:59:20;21.60;99.90
20102;DHT22;10210;52.284;9.892;2023-08-17T05:01:46;21.70;99.90
20102;DHT22;10210;52.284;9.892;2023-08-17T05:04:12;21.70;99.90
20102;DHT22;10210;52.284;9.892;2023-08-17T05:06:37;21.70;99.90
20102;DHT22;10210;52.284;9.892;2023-08-17T05:09:04;21.70;99.90
20102;DHT22;10210;52.284;9.892;2023-08-17T05:11:30;21.70;99.90
20102;DHT22;10210;52.284;9.892;2023-08-17T05:13:56;21.70;99.90
20102;DHT22;10210;52.284;9.892;2023-08-17T05:16:22;21.80;99.90
20102;DHT22;10210;52.284;9.892;2023-08-17T05:18:48;21.80;99.90
20102;DHT22;10210;52.284;9.892;2023-08-17T05:21:14;21.80;99.90
20102;DHT22;10210;52.284;9.892;2023-08-17T05:23:40;21.80;99.90
20102;DHT22;10210;52.284;9.892;2023-08-17T05:26:05;21.80;99.90
20102;DHT22;10210;52.284;9.892;2023-08-17T05:28:31;21.90;99.90
20102;DHT22;10210;52.284;9.892;2023-08-17T05:31:04;21.90;99.90
20102;DHT22;10210;52.284;9.892;2023-08-17T05:33:30;21.90;99.90
20102;DHT22;10210;52.284;9.892;2023-08-17T05:35:56;21.90;99.90
20102;DHT22;10210;52.284;9.892;2023-08-17T05:38:21;21.90;99.90
20102;DHT22;10210;52.284;9.892;2023-08-17T05:40:47;21.90;99.90
20102;DHT22;10210;52.284;9.892;2023-08-17T05:43:13;21.90;99.90
20102;DHT22;10210;52.284;9.892;2023-08-17T05:45:38;22.00;99.90
20102;DHT22;10210;52.284;9.892;2023-08-17T05:48:04;22.00;99.90
20102;DHT22;10210;52.284;9.892;2023-08-17T05:50:31;22.00;99.90
20102;DHT22;10210;52.284;9.892;2023-08-17T05:52:56;22.00;99.90
20102;DHT22;10210;52.284;9.892;2023-08-17T05:55:22;22.00;99.90
20102;DHT22;10210;52.284;9.892;2023-08-17T05:57:47;22.00;99.90
20102;DHT22;10210;52.284;9.892;2023-08-17T06:00:13;22.00;99.90
20102;DHT22;10210;52.284;9.892;2023-08-17T06:02:40;22.00;99.90
20102;DHT22;10210;52.284;9.892;2023-08-17T06:05:06;22.10;99.90
20102;DHT22;10210;52.284;9.892;2023-08-17T06:07:32;22.10;99.90
20102;DHT22;10210;52.284;9.892;2023-08-17T06:09:59;22.10;99.90
20102;DHT22;10210;52.284;9.892;2023-08-17T06:12:25;22.10;99.90
20102;DHT22;10210;52.284;9.892;2023-08-17T06:14:50;22.10;99.90
20102;DHT22;10210;52.284;9.892;2023-08-17T06:17:16;22.10;99.90
20102;DHT22;10210;52.284;9.892;2023-08-17T06:19:42;22.10;99.90
20102;DHT22;10210;52.284;9.892;2023-08-17T06:22:07;22.10;99.90
20102;DHT22;10210;52.284;9.892;2023-08-17T06:24:33;22.10;99.90
20102;DHT22;10210;52.284;9.892;2023-08-17T06:26:59;22.10;99.90
20102;DHT22;10210;52.284;9.892;2023-08-17T06:29:25;22.10;99.90
20102;DHT22;10210;52.284;9.892;2023-08-17T06:31:51;22.10;99.90
20102;DHT22;10210;52.284;9.892;2023-08-17T06:34:16;22.10;99.90
20102;DHT22;10210;52.284;9.892;2023-08-17T06:36:42;22.10;99.90
20102;DHT22;10210;52.284;9.892;2023-08-17T06:39:22;22.10;99.90
20102;DHT22;10210;52.284;9.892;2023-08-17T06:41:48;22.10;99.90
20102;DHT22;10210;52.284;9.892;2023-08-17T06:44:13;22.10;99.90
20102;DHT22;10210;52.284;9.892;2023-08-17T06:46:39;22.10;99.90
20102;DHT22;10210;52.284;9.892;2023-08-17T06:49:05;22.10;99.90
20102;DHT22;10210;52.284;9.892;2023-08-17T06:51:30;22.10;99.90
20102;DHT22;10210;52.284;9.892;2023-08-17T06:53:56;22.10;99.90
20102;DHT22;10210;52.284;9.892;2023-08-17T06:56:22;22.10;99.90
20102;DHT22;10210;52.284;9.892;2023-08-17T06:58:48;22.10;99.90
20102;DHT22;10210;52.284;9.892;2023-08-17T07:01:14;22.10;99.90
20102;DHT22;10210;52.284;9.892;2023-08-17T07:03:40;22.10;99.90
20102;DHT22;10210;52.284;9.892;2023-08-17T07:06:05;22.10;99.90
20102;DHT22;10210;52.284;9.892;2023-08-17T07:08:31;22.10;99.90
20102;DHT22;10210;52.284;9.892;2023-08-17T07:10:58;22.10;99.90
20102;DHT22;10210;52.284;9.892;2023-08-17T07:13:23;22.10;99.90
20102;DHT22;10210;52.284;9.892;2023-08-17T07:15:49;22.10;99.90
20102;DHT22;10210;52.284;9.892;2023-08-17T07:18:15;22.10;99.90
20102;DHT22;10210;52.284;9.892;2023-08-17T07:20:40;22.10;99.90
20102;DHT22;10210;52.284;9.892;2023-08-17T07:23:06;22.20;99.90
20102;DHT22;10210;52.284;9.892;2023-08-17T07:25:32;22.20;99.90
20102;DHT22;10210;52.284;9.892;2023-08-17T07:27:58;22.20;99.90
20102;DHT22;10210;52.284;9.892;2023-08-17T07:30:24;22.20;99.90
20102;DHT22;10210;52.284;9.892;2023-08-17T07:32:50;22.20;99.90
20102;DHT22;10210;52.284;9.892;2023-08-17T07:35:15;22.20;99.90
20102;DHT22;10210;52.284;9.892;2023-08-17T07:37:41;22.20;99.90
20102;DHT22;10210;52.284;9.892;2023-08-17T07:40:07;22.20;99.90
20102;DHT22;10210;52.284;9.892;2023-08-17T07:42:33;22.20;99.90
20102;DHT22;10210;52.284;9.892;2023-08-17T07:45:00;22.20;99.90
20102;DHT22;10210;52.284;9.892;2023-08-17T07:47:26;22.20;99.90
20102;DHT22;10210;52.284;9.892;2023-08-17T07:49:52;22.20;99.90
20102;DHT22;10210;52.284;9.892;2023-08-17T07:52:18;22.20;99.90
20102;DHT22;10210;52.284;9.892;2023-08-17T07:54:45;22.20;99.90
20102;DHT22;10210;52.284;9.892;2023-08-17T07:57:11;22.20;99.90
20102;DHT22;10210;52.284;9.892;2023-08-17T07:59:36;22.20;99.90
20102;DHT22;10210;52.284;9.892;2023-08-17T08:02:02;22.20;99.90
20102;DHT22;10210;52.284;9.892;2023-08-17T08:04:28;22.10;99.90
20102;DHT22;10210;52.284;9.892;2023-08-17T08:06:54;22.20;99.90
20102;DHT22;10210;52.284;9.892;2023-08-17T08:09:20;22.10;99.90
20102;DHT22;10210;52.284;9.892;2023-08-17T08:11:46;22.10;99.90
20102;DHT22;10210;52.284;9.892;2023-08-17T08:14:12;22.10;99.90
20102;DHT22;10210;52.284;9.892;2023-08-17T08:16:37;22.10;99.90
20102;DHT22;10210;52.284;9.892;2023-08-17T08:19:03;22.10;99.90
20102;DHT22;10210;52.284;9.892;2023-08-17T08:21:29;22.10;99.90
20102;DHT22;10210;52.284;9.892;2023-08-17T08:23:56;22.20;99.90
20102;DHT22;10210;52.284;9.892;2023-08-17T08:26:22;22.20;99.90
20102;DHT22;10210;52.284;9.892;2023-08-17T08:28:47;22.20;99.90
20102;DHT22;10210;52.284;9.892;2023-08-17T08:31:13;22.20;99.90
20102;DHT22;10210;52.284;9.892;2023-08-17T08:33:39;22.20;99.90
20102;DHT22;10210;52.284;9.892;2023-08-17T08:36:04;22.20;99.90
20102;DHT22;10210;52.284;9.892;2023-08-17T08:38:31;22.20;99.90
20102;DHT22;10210;52.284;9.892;2023-08-17T08:40:57;22.20;99.90
20102;DHT22;10210;52.284;9.892;2023-08-17T08:43:24;22.20;99.90
20102;DHT22;10210;52.284;9.892;2023-08-17T08:45:51;22.20;99.90
20102;DHT22;10210;52.284;9.892;2023-08-17T08:48:18;22.20;99.90
20102;DHT22;10210;52.284;9.892;2023-08-17T08:50:45;22.20;99.90
20102;DHT22;10210;52.284;9.892;2023-08-17T08:53:17;22.20;99.90
20102;DHT22;10210;52.284;9.892;2023-08-17T08:55:53;22.20;99.90
20102;DHT22;10210;52.284;9.892;2023-08-17T08:58:21;22.20;99.90
20102;DHT22;10210;52.284;9.892;2023-08-17T09:00:47;22.20;99.90
20102;DHT22;10210;52.284;9.892;2023-08-17T09:03:15;22.20;99.90
20102;DHT22;10210;52.284;9.892;2023-08-17T09:05:45;22.20;99.90
20102;DHT22;10210;52.284;9.892;2023-08-17T09:08:13;22.20;99.90
20102;DHT22;10210;52.284;9.892;2023-08-17T09:10:41;22.20;99.90
20102;DHT22;10210;52.284;9.892;2023-08-17T09:13:07;22.30;99.90
20102;DHT22;10210;52.284;9.892;2023-08-17T09:15:34;22.30;99.90
20102;DHT22;10210;52.284;9.892;2023-08-17T09:18:00;22.30;99.90
20102;DHT22;10210;52.284;9.892;2023-08-17T09:20:40;22.30;99.90
20102;DHT22;10210;52.284;9.892;2023-08-17T09:23:13;22.30;99.90
20102;DHT22;10210;52.284;9.892;2023-08-17T09:25:42;22.30;99.90
20102;DHT22;10210;52.284;9.892;2023-08-17T09:28:13;22.30;99.90
20102;DHT22;10210;52.284;9.892;2023-08-17T09:31:00;22.30;99.90
20102;DHT22;10210;52.284;9.892;2023-08-17T09:33:30;22.30;99.90
20102;DHT22;10210;52.284;9.892;2023-08-17T09:35:57;22.30;99.90
20102;DHT22;10210;52.284;9.892;2023-08-17T09:38:24;22.30;99.90
20102;DHT22;10210;52.284;9.892;2023-08-17T09:40:51;22.30;99.90
20102;DHT22;10210;52.284;9.892;2023-08-17T09:43:18;22.30;99.90
20102;DHT22;10210;52.284;9.892;2023-08-17T09:45:46;22.30;99.90
20102;DHT22;10210;52.284;9.892;2023-08-17T09:48:16;22.40;99.90
20102;DHT22;10210;52.284;9.892;2023-08-17T09:50:46;22.40;99.90
20102;DHT22;10210;52.284;9.892;2023-08-17T09:53:15;22.40;99.90
20102;DHT22;10210;52.284;9.892;2023-08-17T09:55:46;22.40;99.90
20102;DHT22;10210;52.284;9.892;2023-08-17T09:58:12;22.40;99.90
20102;DHT22;10210;52.284;9.892;2023-08-17T10:00:45;22.50;99.90
20102;DHT22;10210;52.284;9.892;2023-08-17T10:03:15;22.50;99.90
20102;DHT22;10210;52.284;9.892;2023-08-17T10:05:44;22.50;99.90
20102;DHT22;10210;52.284;9.892;2023-08-17T10:08:15;22.50;99.90
20102;DHT22;10210;52.284;9.892;2023-08-17T10:10:46;22.50;99.90
20102;DHT22;10210;52.284;9.892;2023-08-17T10:13:28;22.50;99.90
20102;DHT22;10210;52.284;9.892;2023-08-17T10:18:31;22.50;99.90
20102;DHT22;10210;52.284;9.892;2023-08-17T10:21:01;22.50;99.90
20102;DHT22;10210;52.284;9.892;2023-08-17T10:23:30;22.50;99.90
20102;DHT22;10210;52.284;9.892;2023-08-17T10:25:56;22.50;99.90
20102;DHT22;10210;52.284;9.892;2023-08-17T10:28:23;22.50;99.90
20102;DHT22;10210;52.284;9.892;2023-08-17T10:30:49;22.50;99.90
20102;DHT22;10210;52.284;9.892;2023-08-17T10:33:16;22.40;99.90
20102;DHT22;10210;52.284;9.892;2023-08-17T10:35:43;22.50;99.90
20102;DHT22;10210;52.284;9.892;2023-08-17T10:38:11;22.50;99.90
20102;DHT22;10210;52.284;9.892;2023-08-17T10:40:41;22.50;99.90
20102;DHT22;10210;52.284;9.892;2023-08-17T10:43:07;22.50;99.90
20102;DHT22;10210;52.284;9.892;2023-08-17T10:45:36;22.50;99.90
20102;DHT22;10210;52.284;9.892;2023-08-17T10:50:33;22.50;99.90
20102;DHT22;10210;52.284;9.892;2023-08-17T10:53:05;22.50;99.90
20102;DHT22;10210;52.284;9.892;2023-08-17T10:55:38;22.40;99.90
20102;DHT22;10210;52.284;9.892;2023-08-17T10:58:06;22.40;99.90
20102;DHT22;10210;52.284;9.892;2023-08-17T11:00:38;22.40;99.90
20102;DHT22;10210;52.284;9.892;2023-08-17T11:03:05;22.30;99.90
20102;DHT22;10210;52.284;9.892;2023-08-17T11:05:42;22.30;99.90
20102;DHT22;10210;52.284;9.892;2023-08-17T11:08:31;22.30;99.90
20102;DHT22;10210;52.284;9.892;2023-08-17T11:11:09;22.30;99.90
20102;DHT22;10210;52.284;9.892;2023-08-17T11:13:40;22.30;99.90
20102;DHT22;10210;52.284;9.892;2023-08-17T11:16:10;22.30;99.90
20102;DHT22;10210;52.284;9.892;2023-08-17T11:18:37;22.30;99.90
20102;DHT22;10210;52.284;9.892;2023-08-17T11:21:05;22.30;99.90
20102;DHT22;10210;52.284;9.892;2023-08-17T11:23:33;22.20;99.90
20102;DHT22;10210;52.284;9.892;2023-08-17T11:26:01;22.20;99.90
20102;DHT22;10210;52.284;9.892;2023-08-17T11:28:29;22.20;99.90
20102;DHT22;10210;52.284;9.892;2023-08-17T11:31:05;22.20;99.90
20102;DHT22;10210;52.284;9.892;2023-08-17T11:33:32;22.10;99.90
20102;DHT22;10210;52.284;9.892;2023-08-17T11:36:00;22.10;99.90
20102;DHT22;10210;52.284;9.892;2023-08-17T11:38:31;22.00;99.90
20102;DHT22;10210;52.284;9.892;2023-08-17T11:40:59;22.00;99.90
20102;DHT22;10210;52.284;9.892;2023-08-17T11:43:27;21.90;99.90
20102;DHT22;10210;52.284;9.892;2023-08-17T11:45:55;21.90;99.90
20102;DHT22;10210;52.284;9.892;2023-08-17T11:48:21;21.90;99.90
20102;DHT22;10210;52.284;9.892;2023-08-17T11:50:49;21.80;99.90
20102;DHT22;10210;52.284;9.892;2023-08-17T11:53:15;21.80;99.90
20102;DHT22;10210;52.284;9.892;2023-08-17T11:55:41;21.80;99.90
20102;DHT22;10210;52.284;9.892;2023-08-17T11:58:07;21.80;99.90
20102;DHT22;10210;52.284;9.892;2023-08-17T12:00:39;21.80;99.90
20102;DHT22;10210;52.284;9.892;2023-08-17T12:03:07;21.70;99.90
20102;DHT22;10210;52.284;9.892;2023-08-17T12:05:33;21.70;99.90
20102;DHT22;10210;52.284;9.892;2023-08-17T12:08:01;21.70;99.90
20102;DHT22;10210;52.284;9.892;2023-08-17T12:10:33;21.70;99.90
20102;DHT22;10210;52.284;9.892;2023-08-17T12:13:00;21.70;99.90
20102;DHT22;10210;52.284;9.892;2023-08-17T12:15:34;21.80;99.90
20102;DHT22;10210;52.284;9.892;2023-08-17T12:18:03;21.70;99.90
20102;DHT22;10210;52.284;9.892;2023-08-17T12:20:30;21.80;99.90
20102;DHT22;10210;52.284;9.892;2023-08-17T12:22:58;21.70;99.90
20102;DHT22;10210;52.284;9.892;2023-08-17T12:25:25;21.80;99.90
20102;DHT22;10210;52.284;9.892;2023-08-17T12:27:51;21.80;99.90
20102;DHT22;10210;52.284;9.892;2023-08-17T12:30:25;21.80;99.90
20102;DHT22;10210;52.284;9.892;2023-08-17T12:32:58;21.80;99.90
20102;DHT22;10210;52.284;9.892;2023-08-17T12:35:27;21.80;99.90
20102;DHT22;10210;52.284;9.892;2023-08-17T12:37:54;21.80;99.90
20102;DHT22;10210;52.284;9.892;2023-08-17T12:40:20;21.90;99.90
20102;DHT22;10210;52.284;9.892;2023-08-17T12:42:47;21.90;99.90
20102;DHT22;10210;52.284;9.892;2023-08-17T12:45:13;21.90;99.90
20102;DHT22;10210;52.284;9.892;2023-08-17T12:47:39;21.90;99.90
20102;DHT22;10210;52.284;9.892;2023-08-17T12:50:05;21.90;99.90
20102;DHT22;10210;52.284;9.892;2023-08-17T12:52:32;21.90;99.90
20102;DHT22;10210;52.284;9.892;2023-08-17T12:54:58;22.00;99.90
20102;DHT22;10210;52.284;9.892;2023-08-17T12:57:24;22.00;99.90
20102;DHT22;10210;52.284;9.892;2023-08-17T12:59:49;22.00;99.90
20102;DHT22;10210;52.284;9.892;2023-08-17T13:02:15;22.00;99.90
20102;DHT22;10210;52.284;9.892;2023-08-17T13:04:41;22.00;99.90
20102;DHT22;10210;52.284;9.892;2023-08-17T13:07:07;22.00;99.90
20102;DHT22;10210;52.284;9.892;2023-08-17T13:09:33;22.00;99.90
20102;DHT22;10210;52.284;9.892;2023-08-17T13:11:59;22.00;99.90
20102;DHT22;10210;52.284;9.892;2023-08-17T13:14:25;22.00;99.90
20102;DHT22;10210;52.284;9.892;2023-08-17T13:16:51;22.00;99.90
20102;DHT22;10210;52.284;9.892;2023-08-17T13:19:17;22.00;99.90
20102;DHT22;10210;52.284;9.892;2023-08-17T13:21:43;22.00;99.90
20102;DHT22;10210;52.284;9.892;2023-08-17T13:24:10;22.00;99.90
20102;DHT22;10210;52.284;9.892;2023-08-17T13:26:36;22.00;99.90
20102;DHT22;10210;52.284;9.892;2023-08-17T13:29:01;22.10;99.90
20102;DHT22;10210;52.284;9.892;2023-08-17T13:31:28;22.10;99.90
20102;DHT22;10210;52.284;9.892;2023-08-17T13:33:54;22.10;99.90
20102;DHT22;10210;52.284;9.892;2023-08-17T13:36:20;22.10;99.90
20102;DHT22;10210;52.284;9.892;2023-08-17T13:38:46;22.10;99.90
20102;DHT22;10210;52.284;9.892;2023-08-17T13:41:12;22.10;99.90
20102;DHT22;10210;52.284;9.892;2023-08-17T13:43:38;22.10;99.90
20102;DHT22;10210;52.284;9.892;2023-08-17T13:46:04;22.10;99.90
20102;DHT22;10210;52.284;9.892;2023-08-17T13:48:30;22.10;99.90
20102;DHT22;10210;52.284;9.892;2023-08-17T13:50:56;22.10;99.90
20102;DHT22;10210;52.284;9.892;2023-08-17T13:53:22;22.10;99.90
20102;DHT22;10210;52.284;9.892;2023-08-17T13:55:48;22.00;99.90
20102;DHT22;10210;52.284;9.892;2023-08-17T13:58:14;22.10;99.90
20102;DHT22;10210;52.284;9.892;2023-08-17T14:00:41;22.10;99.90
20102;DHT22;10210;52.284;9.892;2023-08-17T14:03:07;22.10;99.90
20102;DHT22;10210;52.284;9.892;2023-08-17T14:05:33;22.10;99.90
20102;DHT22;10210;52.284;9.892;2023-08-17T14:07:59;22.10;99.90
20102;DHT22;10210;52.284;9.892;2023-08-17T14:10:24;22.00;99.90
20102;DHT22;10210;52.284;9.892;2023-08-17T14:12:50;22.00;99.90
20102;DHT22;10210;52.284;9.892;2023-08-17T14:15:16;22.00;99.90
20102;DHT22;10210;52.284;9.892;2023-08-17T14:17:41;22.10;99.90
20102;DHT22;10210;52.284;9.892;2023-08-17T14:20:07;22.00;99.90
20102;DHT22;10210;52.284;9.892;2023-08-17T14:22:34;22.10;99.90
20102;DHT22;10210;52.284;9.892;2023-08-17T14:25:00;22.10;99.90
20102;DHT22;10210;52.284;9.892;2023-08-17T14:27:26;22.10;99.90
20102;DHT22;10210;52.284;9.892;2023-08-17T14:29:52;22.10;99.90
20102;DHT22;10210;52.284;9.892;2023-08-17T14:32:17;22.10;99.90
20102;DHT22;10210;52.284;9.892;2023-08-17T14:34:43;22.10;99.90
20102;DHT22;10210;52.284;9.892;2023-08-17T14:37:09;22.10;99.90
20102;DHT22;10210;52.284;9.892;2023-08-17T14:39:34;22.10;99.90
20102;DHT22;10210;52.284;9.892;2023-08-17T14:42:00;22.10;99.90
20102;DHT22;10210;52.284;9.892;2023-08-17T14:44:26;22.10;99.90
20102;DHT22;10210;52.284;9.892;2023-08-17T14:46:51;22.10;99.90
20102;DHT22;10210;52.284;9.892;2023-08-17T14:49:17;22.10;99.90
20102;DHT22;10210;52.284;9.892;2023-08-17T14:51:43;22.10;99.90
20102;DHT22;10210;52.284;9.892;2023-08-17T14:54:09;22.20;99.90
20102;DHT22;10210;52.284;9.892;2023-08-17T14:56:35;22.20;99.90
20102;DHT22;10210;52.284;9.892;2023-08-17T14:59:01;22.20;99.90
20102;DHT22;10210;52.284;9.892;2023-08-17T15:01:27;22.20;99.90
20102;DHT22;10210;52.284;9.892;2023-08-17T15:03:55;22.20;99.90
20102;DHT22;10210;52.284;9.892;2023-08-17T15:06:20;22.20;99.90
20102;DHT22;10210;52.284;9.892;2023-08-17T15:08:49;22.20;99.90
20102;DHT22;10210;52.284;9.892;2023-08-17T15:11:15;22.20;99.90
20102;DHT22;10210;52.284;9.892;2023-08-17T15:13:41;22.20;99.90
20102;DHT22;10210;52.284;9.892;2023-08-17T15:16:07;22.20;99.90
20102;DHT22;10210;52.284;9.892;2023-08-17T15:18:33;22.20;99.90
20102;DHT22;10210;52.284;9.892;2023-08-17T15:20:58;22.10;99.90
20102;DHT22;10210;52.284;9.892;2023-08-17T15:23:24;22.20;99.90
20102;DHT22;10210;52.284;9.892;2023-08-17T15:25:50;22.10;99.90
20102;DHT22;10210;52.284;9.892;2023-08-17T15:28:16;22.20;99.90
20102;DHT22;10210;52.284;9.892;2023-08-17T15:30:41;22.10;99.90
20102;DHT22;10210;52.284;9.892;2023-08-17T15:33:07;22.20;99.90
20102;DHT22;10210;52.284;9.892;2023-08-17T15:35:33;22.20;99.90
20102;DHT22;10210;52.284;9.892;2023-08-17T15:37:59;22.20;99.90
20102;DHT22;10210;52.284;9.892;2023-08-17T15:40:24;22.20;99.90